createdAt,value
2019-03-18T00:00:13.956Z,176.70
2019-03-18T00:02:42.483Z,176.27
2019-03-18T00:05:11.099Z,181.83
2019-03-18T00:07:39.675Z,184.60
2019-03-18T00:10:08.522Z,176.60
2019-03-18T00:12:37.155Z,179.80
2019-03-18T00:15:07.850Z,186.57
2019-03-18T00:17:36.343Z,173.60
2019-03-18T00:20:06.715Z,177.80
2019-03-18T00:22:35.417Z,177.67
2019-03-18T00:25:05.593Z,175.53
2019-03-18T00:27:34.091Z,174.87
2019-03-18T00:30:02.615Z,179.87
2019-03-18T00:32:31.115Z,175.90
2019-03-18T00:34:59.704Z,178.43
2019-03-18T00:37:28.300Z,183.07
2019-03-18T00:39:56.853Z,182.07
2019-03-18T00:42:25.348Z,174.37
2019-03-18T00:44:53.942Z,181.27
2019-03-18T00:47:22.431Z,179.63
2019-03-18T00:49:50.932Z,181.90
2019-03-18T00:52:19.393Z,177.47
2019-03-18T00:54:47.801Z,177.60
2019-03-18T00:57:16.223Z,181.03
2019-03-18T00:59:44.792Z,187.43
2019-03-18T01:02:13.295Z,178.10
2019-03-18T01:04:41.877Z,172.93
2019-03-18T01:07:10.480Z,174.67
2019-03-18T01:09:38.961Z,187.37
2019-03-18T01:12:07.445Z,174.33
2019-03-18T01:14:35.981Z,175.67
2019-03-18T01:17:04.395Z,178.37
2019-03-18T01:19:32.873Z,174.57
2019-03-18T01:22:01.400Z,175.20
2019-03-18T01:24:29.885Z,175.17
2019-03-18T01:26:58.377Z,185.13
2019-03-18T01:29:26.903Z,175.37
2019-03-18T01:31:55.462Z,182.17
2019-03-18T01:34:24.093Z,173.57
2019-03-18T01:36:52.616Z,178.77
2019-03-18T01:39:21.105Z,174.07
2019-03-18T01:41:49.656Z,179.00
2019-03-18T01:44:18.064Z,178.00
2019-03-18T01:46:46.567Z,179.67
2019-03-18T01:49:15.122Z,173.33
2019-03-18T01:51:43.601Z,172.20
2019-03-18T01:54:12.082Z,181.97
2019-03-18T01:56:40.495Z,173.73
2019-03-18T01:59:09.022Z,172.20
2019-03-18T02:01:37.539Z,173.53
2019-03-18T02:04:06.013Z,180.77
2019-03-18T02:06:34.482Z,175.47
2019-03-18T02:09:03.820Z,172.87
2019-03-18T02:11:32.443Z,167.40
2019-03-18T02:14:01.054Z,171.07
2019-03-18T02:16:29.526Z,168.57
2019-03-18T02:18:58.019Z,169.47
2019-03-18T02:21:26.545Z,170.10
2019-03-18T02:23:55.037Z,174.10
2019-03-18T02:26:23.519Z,182.27
2019-03-18T02:28:52.056Z,172.57
2019-03-18T02:31:20.479Z,169.73
2019-03-18T02:33:49.239Z,174.67
2019-03-18T02:36:17.824Z,169.60
2019-03-18T02:38:46.379Z,167.90
2019-03-18T02:41:14.896Z,172.70
2019-03-18T02:43:43.369Z,175.37
2019-03-18T02:46:11.871Z,167.10
2019-03-18T02:48:40.433Z,176.83
2019-03-18T02:51:09.100Z,172.13
2019-03-18T02:53:37.654Z,170.80
2019-03-18T02:56:06.154Z,169.47
2019-03-18T02:58:34.689Z,178.03
2019-03-18T03:01:03.318Z,173.57
2019-03-18T03:03:31.810Z,168.17
2019-03-18T03:06:00.434Z,171.67
2019-03-18T03:08:29.722Z,168.70
2019-03-18T03:10:58.214Z,175.13
2019-03-18T03:13:26.887Z,168.77
2019-03-18T03:15:55.292Z,176.13
2019-03-18T03:18:23.778Z,173.90
2019-03-18T03:20:52.311Z,185.17
2019-03-18T03:23:20.937Z,171.10
2019-03-18T03:25:49.489Z,171.93
2019-03-18T03:28:18.016Z,175.53
2019-03-18T03:30:46.581Z,171.67
2019-03-18T03:33:15.064Z,169.10
2019-03-18T03:35:43.667Z,168.37
2019-03-18T03:38:12.153Z,164.03
2019-03-18T03:40:40.774Z,169.83
2019-03-18T03:43:09.299Z,175.07
2019-03-18T03:45:37.786Z,171.47
2019-03-18T03:48:06.301Z,172.10
2019-03-18T03:50:34.819Z,172.10
2019-03-18T03:53:03.303Z,178.47
2019-03-18T03:55:31.778Z,170.93
2019-03-18T03:58:00.312Z,176.40
2019-03-18T04:00:28.895Z,177.10
2019-03-18T04:02:57.532Z,177.23
2019-03-18T04:05:26.076Z,168.87
2019-03-18T04:07:54.627Z,177.80
2019-03-18T04:10:24.139Z,173.80
2019-03-18T04:12:52.657Z,178.13
2019-03-18T04:15:21.143Z,181.73
2019-03-18T04:17:49.620Z,167.80
2019-03-18T04:20:18.203Z,168.00
2019-03-18T04:22:46.758Z,166.13
2019-03-18T04:25:15.311Z,169.77
2019-03-18T04:27:43.857Z,168.30
2019-03-18T04:30:13.827Z,171.63
2019-03-18T04:32:42.330Z,171.97
2019-03-18T04:35:10.913Z,173.57
2019-03-18T04:37:39.335Z,179.97
2019-03-18T04:40:09.188Z,169.27
2019-03-18T04:42:37.729Z,167.27
2019-03-18T04:45:07.359Z,172.83
2019-03-18T04:47:35.911Z,181.07
2019-03-18T04:50:06.017Z,170.70
2019-03-18T04:52:34.509Z,172.30
2019-03-18T04:55:02.997Z,172.53
2019-03-18T04:57:31.519Z,168.87
2019-03-18T05:00:00.009Z,174.90
2019-03-18T05:02:28.570Z,168.83
2019-03-18T05:04:57.098Z,177.63
2019-03-18T05:07:25.595Z,175.83
2019-03-18T05:09:54.144Z,185.30
2019-03-18T05:12:23.653Z,176.03
2019-03-18T05:14:52.148Z,176.57
2019-03-18T05:17:26.598Z,178.33
2019-03-18T05:19:50.890Z,184.97
2019-03-18T05:22:19.377Z,176.43
2019-03-18T05:24:47.879Z,185.43
2019-03-18T05:27:16.475Z,171.40
2019-03-18T05:29:44.968Z,179.07
2019-03-18T05:32:13.462Z,175.23
2019-03-18T05:34:41.996Z,175.80
2019-03-18T05:37:10.539Z,126.60
2019-03-18T05:39:39.107Z,38.67
2019-03-18T05:42:07.691Z,20.00
2019-03-18T05:44:36.386Z,7.40
2019-03-18T05:47:04.969Z,10.47
2019-03-18T05:49:33.629Z,6.13
2019-03-18T05:52:02.117Z,10.83
2019-03-18T05:54:30.584Z,7.57
2019-03-18T05:56:59.134Z,19.00
2019-03-18T05:59:27.612Z,10.03
2019-03-18T06:01:56.030Z,6.33
2019-03-18T06:04:24.545Z,17.37
2019-03-18T06:06:52.952Z,11.83
2019-03-18T06:09:21.494Z,11.23
2019-03-18T06:11:50.014Z,9.97
2019-03-18T06:14:19.337Z,13.77
2019-03-18T06:16:47.825Z,8.63
2019-03-18T06:19:16.343Z,11.23
2019-03-18T06:21:44.836Z,13.47
2019-03-18T06:24:13.243Z,7.87
2019-03-18T06:26:41.818Z,11.40
2019-03-18T06:29:10.374Z,10.17
2019-03-18T06:31:38.920Z,16.23
2019-03-18T06:34:07.514Z,12.70
2019-03-18T06:36:36.072Z,10.47
2019-03-18T06:39:06.103Z,11.10
2019-03-18T06:41:34.617Z,15.13
2019-03-18T06:44:03.102Z,8.43
2019-03-18T06:46:31.652Z,8.53
2019-03-18T06:49:00.327Z,10.47
2019-03-18T06:51:28.940Z,17.77
2019-03-18T06:53:57.371Z,136.33
2019-03-18T06:56:25.838Z,20.20
2019-03-18T06:58:54.386Z,37.23
2019-03-18T07:01:22.876Z,7.47
2019-03-18T07:03:51.548Z,8.87
2019-03-18T07:06:20.023Z,11.37
2019-03-18T07:08:48.577Z,8.00
2019-03-18T07:11:18.207Z,19.37
2019-03-18T07:13:46.691Z,16.50
2019-03-18T07:16:16.084Z,7.13
2019-03-18T07:18:44.606Z,12.67
2019-03-18T07:21:14.740Z,24.40
2019-03-18T07:23:43.305Z,12.93
2019-03-18T07:26:11.891Z,15.53
2019-03-18T07:28:40.451Z,12.83
2019-03-18T07:31:09.017Z,11.07
2019-03-18T07:33:37.534Z,10.20
2019-03-18T07:36:05.953Z,9.07
2019-03-18T07:38:34.450Z,9.43
2019-03-18T07:41:03.049Z,7.50
2019-03-18T07:43:31.528Z,22.07
2019-03-18T07:45:59.939Z,9.10
2019-03-18T07:48:31.179Z,37.63
2019-03-18T07:50:58.753Z,47.33
2019-03-18T07:53:27.246Z,48.03
2019-03-18T07:55:55.761Z,20.50
2019-03-18T07:58:24.317Z,13.20
2019-03-18T08:00:52.926Z,46.37
2019-03-18T08:03:21.607Z,41.33
2019-03-18T08:05:50.159Z,14.87
2019-03-18T08:08:20.341Z,10.27
2019-03-18T08:10:48.985Z,8.00
2019-03-18T08:13:17.535Z,7.33
2019-03-18T08:15:46.326Z,6.37
2019-03-18T08:18:15.733Z,14.23
2019-03-18T08:20:44.284Z,14.53
2019-03-18T08:23:12.768Z,8.60
2019-03-18T08:25:41.990Z,6.07
2019-03-18T08:28:10.546Z,8.17
2019-03-18T08:30:39.191Z,6.53
2019-03-18T08:33:07.805Z,6.37
2019-03-18T08:35:36.427Z,10.33
2019-03-18T08:38:04.907Z,15.83
2019-03-18T08:40:33.557Z,11.53
2019-03-18T08:43:02.405Z,79.80
2019-03-18T08:45:30.949Z,60.63
2019-03-18T08:47:59.490Z,68.30
2019-03-18T08:50:27.992Z,44.93
2019-03-18T08:52:56.477Z,34.43
2019-03-18T08:55:25.082Z,13.27
2019-03-18T08:57:53.570Z,13.67
2019-03-18T09:00:22.293Z,10.93
2019-03-18T09:02:50.821Z,39.17
2019-03-18T09:05:19.458Z,11.70
2019-03-18T09:07:47.947Z,14.13
2019-03-18T09:10:17.677Z,10.83
2019-03-18T09:12:46.235Z,21.27
2019-03-18T09:15:14.846Z,17.93
2019-03-18T09:17:43.340Z,18.47
2019-03-18T09:20:17.387Z,11.63
2019-03-18T09:22:46.348Z,20.47
2019-03-18T09:25:14.904Z,20.00
2019-03-18T09:27:43.370Z,7.80
2019-03-18T09:30:18.193Z,8.73
2019-03-18T09:32:46.657Z,10.37
2019-03-18T09:35:15.358Z,3.40
2019-03-18T09:37:43.891Z,7.63
2019-03-18T09:40:14.842Z,29.00
2019-03-18T09:42:44.066Z,10.50
2019-03-18T09:45:19.113Z,14.77
2019-03-18T09:47:47.599Z,14.57
2019-03-18T09:50:16.164Z,3.00
2019-03-18T09:52:44.715Z,11.33
2019-03-18T09:55:13.280Z,7.97
2019-03-18T09:57:41.778Z,15.73
2019-03-18T10:00:16.194Z,12.73
2019-03-18T10:02:44.750Z,13.30
2019-03-18T10:05:13.239Z,4.40
2019-03-18T10:07:41.829Z,6.43
2019-03-18T10:10:12.384Z,13.07
2019-03-18T10:12:40.893Z,10.27
2019-03-18T10:15:14.771Z,16.67
2019-03-18T10:17:43.256Z,14.27
2019-03-18T10:20:11.816Z,14.00
2019-03-18T10:22:41.252Z,9.47
2019-03-18T10:25:09.829Z,8.97
2019-03-18T10:27:38.319Z,32.43
2019-03-18T10:30:12.160Z,39.27
2019-03-18T10:32:40.719Z,24.90
2019-03-18T10:35:09.641Z,13.80
2019-03-18T10:37:38.229Z,17.60
2019-03-18T10:40:16.254Z,14.27
2019-03-18T10:42:47.498Z,21.73
2019-03-18T10:45:15.999Z,11.27
2019-03-18T10:47:44.471Z,12.67
2019-03-18T10:50:16.910Z,18.73
2019-03-18T10:52:45.320Z,31.63
2019-03-18T10:55:13.877Z,20.77
2019-03-18T10:57:42.473Z,12.37
2019-03-18T11:00:15.962Z,17.00
2019-03-18T11:02:45.306Z,19.53
2019-03-18T11:05:14.843Z,8.83
2019-03-18T11:07:43.497Z,15.80
2019-03-18T11:10:14.137Z,15.87
2019-03-18T11:12:42.796Z,11.13
2019-03-18T11:15:14.466Z,9.73
2019-03-18T11:17:42.949Z,9.03
2019-03-18T11:20:13.244Z,14.10
2019-03-18T11:22:41.666Z,14.17
2019-03-18T11:25:11.714Z,18.13
2019-03-18T11:27:40.329Z,13.07
2019-03-18T11:30:14.145Z,10.17
2019-03-18T11:32:42.637Z,9.90
2019-03-18T11:35:11.177Z,11.93
2019-03-18T11:37:39.811Z,7.13
2019-03-18T11:40:11.633Z,14.50
2019-03-18T11:42:40.295Z,12.17
2019-03-18T11:45:12.865Z,13.30
2019-03-18T11:47:41.415Z,15.03
2019-03-18T11:50:12.193Z,8.77
2019-03-18T11:52:40.674Z,14.47
2019-03-18T11:55:17.399Z,13.03
2019-03-18T11:57:46.022Z,20.50
2019-03-18T12:00:17.046Z,13.80
2019-03-18T12:02:45.582Z,24.03
2019-03-18T12:05:24.641Z,32.27
2019-03-18T12:07:53.172Z,22.67
2019-03-18T12:10:21.754Z,11.07
2019-03-18T12:12:50.307Z,23.47
2019-03-18T12:15:21.667Z,14.37
2019-03-18T12:17:50.426Z,9.60
2019-03-18T12:20:24.807Z,15.43
2019-03-18T12:22:49.578Z,25.77
2019-03-18T12:25:18.671Z,14.77
2019-03-18T12:27:47.330Z,7.57
2019-03-18T12:30:26.608Z,17.47
2019-03-18T12:32:55.009Z,27.97
2019-03-18T12:35:23.662Z,5.93
2019-03-18T12:37:52.415Z,9.73
2019-03-18T12:40:20.897Z,19.80
2019-03-18T12:42:49.426Z,20.30
2019-03-18T12:45:19.271Z,11.43
2019-03-18T12:47:47.988Z,15.57
2019-03-18T12:50:17.904Z,10.50
2019-03-18T12:52:46.913Z,15.17
2019-03-18T12:55:15.471Z,11.87
2019-03-18T12:57:43.950Z,15.07
2019-03-18T13:00:26.529Z,12.83
2019-03-18T13:02:55.015Z,40.20
2019-03-18T13:05:23.565Z,9.67
2019-03-18T13:07:52.080Z,14.00
2019-03-18T13:10:21.912Z,8.63
2019-03-18T13:12:50.599Z,23.60
2019-03-18T13:15:20.642Z,11.97
2019-03-18T13:17:49.275Z,20.20
2019-03-18T13:20:19.862Z,13.53
2019-03-18T13:22:48.808Z,23.97
2019-03-18T13:25:18.302Z,8.40
2019-03-18T13:27:47.844Z,44.40
2019-03-18T13:30:20.374Z,13.73
2019-03-18T13:32:49.138Z,15.50
2019-03-18T13:35:18.029Z,20.33
2019-03-18T13:37:46.626Z,16.67
2019-03-18T13:40:15.695Z,13.63
2019-03-18T13:42:44.168Z,9.57
2019-03-18T13:45:20.784Z,15.47
2019-03-18T13:47:49.278Z,14.77
2019-03-18T13:50:21.467Z,9.17
2019-03-18T13:52:50.129Z,25.77
2019-03-18T13:55:18.757Z,10.27
2019-03-18T13:57:47.254Z,15.27
2019-03-18T14:00:17.690Z,9.20
2019-03-18T14:02:46.429Z,15.97
2019-03-18T14:05:15.166Z,8.67
2019-03-18T14:07:43.768Z,12.47
2019-03-18T14:10:14.365Z,15.57
2019-03-18T14:12:42.854Z,9.70
2019-03-18T14:15:14.015Z,10.77
2019-03-18T14:17:42.490Z,12.93
2019-03-18T14:20:13.818Z,17.00
2019-03-18T14:22:43.681Z,6.70
2019-03-18T14:25:12.730Z,9.03
2019-03-18T14:27:41.344Z,19.37
2019-03-18T14:30:22.282Z,25.50
2019-03-18T14:32:50.777Z,25.60
2019-03-18T14:35:21.463Z,15.80
2019-03-18T14:37:49.495Z,7.07
2019-03-18T14:40:22.080Z,10.07
2019-03-18T14:42:50.585Z,22.17
2019-03-18T14:45:25.134Z,19.03
2019-03-18T14:48:14.610Z,19.03
2019-03-18T14:50:43.419Z,21.03
2019-03-18T14:53:11.975Z,15.67
2019-03-18T14:55:40.486Z,13.70
2019-03-18T14:58:09.011Z,28.80
2019-03-18T15:00:37.865Z,13.33
2019-03-18T15:03:06.395Z,13.03
2019-03-18T15:05:37.027Z,15.80
2019-03-18T15:08:05.169Z,17.50
2019-03-18T15:10:33.657Z,22.80
2019-03-18T15:13:02.252Z,35.87
2019-03-18T15:15:30.781Z,11.70
2019-03-18T15:17:59.338Z,14.90
2019-03-18T15:20:28.664Z,8.87
2019-03-18T15:22:57.235Z,30.80
2019-03-18T15:25:30.571Z,22.23
2019-03-18T15:27:59.249Z,15.37
2019-03-18T15:30:31.193Z,14.67
2019-03-18T15:33:00.208Z,22.07
2019-03-18T15:35:28.808Z,20.90
2019-03-18T15:37:57.371Z,17.10
2019-03-18T15:40:27.867Z,13.37
2019-03-18T15:42:56.543Z,24.53
2019-03-18T15:45:25.023Z,15.97
2019-03-18T15:47:53.755Z,12.03
2019-03-18T15:50:26.186Z,10.10
2019-03-18T15:52:54.718Z,9.27
2019-03-18T15:55:24.356Z,20.63
2019-03-18T15:57:53.924Z,189.93
2019-03-18T16:00:25.338Z,181.63
2019-03-18T16:02:53.598Z,185.53
2019-03-18T16:05:22.223Z,195.47
2019-03-18T16:07:50.528Z,196.73
2019-03-18T16:10:20.075Z,178.50
2019-03-18T16:12:48.770Z,169.77
2019-03-18T16:15:17.942Z,187.97
2019-03-18T16:17:46.587Z,192.90
2019-03-18T16:20:19.034Z,176.43
2019-03-18T16:22:47.592Z,253.87
2019-03-18T16:25:16.176Z,189.67
2019-03-18T16:27:44.820Z,192.87
2019-03-18T16:30:18.694Z,188.47
2019-03-18T16:32:47.323Z,187.93
2019-03-18T16:35:16.754Z,190.17
2019-03-18T16:37:45.327Z,190.30
2019-03-18T16:40:21.317Z,192.00
2019-03-18T16:42:49.959Z,191.43
2019-03-18T16:45:20.282Z,182.60
2019-03-18T16:47:48.996Z,183.20
2019-03-18T16:50:31.143Z,188.43
2019-03-18T16:52:59.768Z,180.97
2019-03-18T16:55:28.485Z,178.47
2019-03-18T16:57:57.156Z,181.87
2019-03-18T17:00:28.105Z,181.83
2019-03-18T17:02:56.738Z,185.13
2019-03-18T17:05:27.311Z,182.37
2019-03-18T17:07:55.636Z,183.53
2019-03-18T17:10:24.250Z,191.70
2019-03-18T17:12:52.844Z,181.37
2019-03-18T17:15:22.146Z,184.87
2019-03-18T17:17:50.857Z,184.07
2019-03-18T17:20:19.441Z,177.33
2019-03-18T17:22:50.003Z,180.13
2019-03-18T17:25:25.902Z,178.60
2019-03-18T17:27:54.612Z,188.83
2019-03-18T17:30:23.246Z,186.73
2019-03-18T17:32:51.790Z,186.73
2019-03-18T17:35:20.447Z,196.10
2019-03-18T17:37:48.913Z,193.97
2019-03-18T17:40:22.273Z,186.47
2019-03-18T17:42:50.991Z,185.50
2019-03-18T17:45:19.553Z,170.87
2019-03-18T17:47:48.243Z,166.97
2019-03-18T17:50:22.444Z,169.50
2019-03-18T17:53:01.493Z,165.40
2019-03-18T17:55:21.451Z,159.37
2019-03-18T17:57:50.045Z,166.63
2019-03-18T18:00:37.012Z,180.57
2019-03-18T18:03:05.698Z,172.40
2019-03-18T18:05:34.207Z,167.00
2019-03-18T18:08:02.709Z,167.70
2019-03-18T18:10:31.434Z,174.23
2019-03-18T18:13:00.231Z,177.40
2019-03-18T18:15:29.029Z,180.87
2019-03-18T18:17:57.699Z,176.43
2019-03-18T18:20:26.329Z,147.00
2019-03-18T18:22:54.905Z,130.30
2019-03-18T18:25:24.198Z,192.43
2019-03-18T18:27:52.883Z,193.47
2019-03-18T18:30:21.430Z,183.63
2019-03-18T18:32:50.043Z,199.33
2019-03-18T18:35:18.693Z,190.33
2019-03-18T18:37:47.629Z,190.67
2019-03-18T18:40:26.566Z,194.33
2019-03-18T18:42:55.056Z,194.43
2019-03-18T18:45:24.020Z,203.97
2019-03-18T18:47:52.625Z,192.63
2019-03-18T18:50:21.243Z,186.80
2019-03-18T18:52:49.967Z,194.33
2019-03-18T18:55:18.482Z,198.20
2019-03-18T18:57:46.981Z,199.93
2019-03-18T19:00:19.291Z,198.87
2019-03-18T19:02:47.896Z,200.83
2019-03-18T19:05:19.542Z,197.13
2019-03-18T19:07:48.126Z,177.30
2019-03-18T19:10:17.703Z,188.67
2019-03-18T19:12:46.340Z,182.93
2019-03-18T19:15:18.091Z,168.00
2019-03-18T19:17:47.187Z,168.90
2019-03-18T19:20:15.807Z,173.90
2019-03-18T19:22:44.537Z,146.93
2019-03-18T19:25:16.713Z,202.77
2019-03-18T19:27:44.966Z,201.30
2019-03-18T19:30:16.415Z,186.93
2019-03-18T19:32:44.714Z,179.90
2019-03-18T19:35:13.315Z,180.80
2019-03-18T19:37:42.776Z,187.00
2019-03-18T19:40:16.479Z,169.80
2019-03-18T19:42:44.752Z,171.67
2019-03-18T19:45:14.196Z,176.90
2019-03-18T19:47:42.860Z,168.77
2019-03-18T19:50:14.089Z,159.80
2019-03-18T19:52:42.417Z,168.93
2019-03-18T19:55:12.448Z,178.47
2019-03-18T19:57:40.754Z,168.83
2019-03-18T20:00:19.618Z,164.30
2019-03-18T20:02:48.283Z,165.03
2019-03-18T20:05:20.291Z,176.27
2019-03-18T20:07:49.188Z,167.17
2019-03-18T20:10:21.730Z,177.60
2019-03-18T20:12:50.415Z,165.03
2019-03-18T20:15:19.690Z,157.97
2019-03-18T20:17:48.389Z,158.47
2019-03-18T20:20:18.419Z,171.20
2019-03-18T20:22:47.935Z,171.17
2019-03-18T20:25:18.450Z,177.10
2019-03-18T20:27:46.960Z,183.87
2019-03-18T20:30:19.659Z,190.07
2019-03-18T20:32:50.122Z,156.97
2019-03-18T20:35:19.542Z,151.47
2019-03-18T20:37:51.912Z,151.93
2019-03-18T20:40:20.297Z,164.67
2019-03-18T20:42:49.329Z,157.27
2019-03-18T20:45:22.607Z,162.40
2019-03-18T20:47:51.362Z,154.37
2019-03-18T20:50:21.839Z,148.67
2019-03-18T20:52:50.589Z,157.97
2019-03-18T20:55:19.245Z,154.43
2019-03-18T20:57:48.689Z,149.73
2019-03-18T21:00:25.809Z,160.20
2019-03-18T21:02:54.688Z,163.97
2019-03-18T21:05:25.149Z,156.57
2019-03-18T21:07:53.910Z,161.70
2019-03-18T21:10:22.405Z,159.27
2019-03-18T21:12:50.892Z,163.13
2019-03-18T21:15:19.380Z,156.50
2019-03-18T21:17:50.045Z,170.13
2019-03-18T21:20:23.108Z,170.70
2019-03-18T21:22:53.392Z,159.53
2019-03-18T21:25:22.069Z,160.00
2019-03-18T21:27:50.940Z,146.43
2019-03-18T21:30:21.984Z,155.57
2019-03-18T21:32:50.714Z,150.63
2019-03-18T21:35:19.375Z,153.70
2019-03-18T21:37:47.670Z,163.40
2019-03-18T21:40:20.351Z,157.57
2019-03-18T21:42:49.105Z,160.40
2019-03-18T21:45:24.688Z,159.43
2019-03-18T21:47:53.217Z,160.53
2019-03-18T21:50:21.775Z,168.73
2019-03-18T21:52:50.441Z,157.57
2019-03-18T21:55:40.732Z,46.27
2019-03-18T21:58:09.450Z,16.63
2019-03-18T22:00:37.989Z,29.93
2019-03-18T22:03:06.579Z,21.27
2019-03-18T22:05:35.243Z,41.03
2019-03-18T22:08:03.862Z,56.60
2019-03-18T22:10:32.540Z,19.50
2019-03-18T22:13:01.123Z,32.83
2019-03-18T22:15:29.625Z,44.70
2019-03-18T22:17:58.267Z,25.37
2019-03-18T22:20:26.759Z,27.30
2019-03-18T22:22:55.384Z,27.57
2019-03-18T22:25:23.910Z,84.30
2019-03-18T22:27:52.615Z,123.47
2019-03-18T22:30:21.327Z,108.53
2019-03-18T22:32:49.846Z,132.87
2019-03-18T22:35:18.868Z,71.73
2019-03-18T22:37:47.357Z,94.80
2019-03-18T22:40:17.747Z,57.63
2019-03-18T22:42:46.275Z,54.93
2019-03-18T22:45:15.739Z,33.83
2019-03-18T22:47:44.258Z,23.87
2019-03-18T22:50:14.874Z,24.57
2019-03-18T22:52:43.364Z,8.33
2019-03-18T22:55:13.884Z,16.37
2019-03-18T22:57:42.374Z,22.40
2019-03-18T23:00:21.453Z,25.80
2019-03-18T23:02:50.122Z,54.80
2019-03-18T23:05:18.665Z,79.87
2019-03-18T23:07:47.279Z,64.07
2019-03-18T23:10:16.360Z,70.53
2019-03-18T23:12:44.998Z,147.90
2019-03-18T23:15:13.669Z,14.33
2019-03-18T23:17:42.231Z,15.27
2019-03-18T23:20:10.787Z,10.57
2019-03-18T23:22:39.377Z,23.23
2019-03-18T23:25:08.335Z,13.17
2019-03-18T23:27:36.995Z,10.33
2019-03-18T23:30:11.022Z,8.17
2019-03-18T23:32:39.568Z,8.53
2019-03-18T23:35:09.747Z,11.80
2019-03-18T23:37:38.203Z,11.47
2019-03-18T23:40:13.962Z,9.33
2019-03-18T23:42:42.559Z,18.63
2019-03-18T23:45:11.412Z,15.07
2019-03-18T23:47:39.911Z,29.30
2019-03-18T23:50:16.009Z,11.53
2019-03-18T23:52:44.483Z,19.80
2019-03-18T23:55:19.522Z,31.13
2019-03-18T23:57:43.256Z,17.20
